Time;durP1;ratioP1;P1;durP2;ratioP2;P2;SDS_P1;SDS_P2;PMS_P1;PMS_P2;Temp;Humidity;BMP_temperature;BMP_pressure;BME280_temperature;BME280_humidity;BME280_pressure;Samples;Min_cycle;Max_cycle;Signal;HPM_P1;HPM_P2
2021/08/03 00:00:38;;;;;;;;;;;;;;;;;;5060462;28;1969;-51
2021/08/03 00:03:07;;;;;;;;;;;;;;;;;;5063468;28;1290;-50
2021/08/03 00:05:33;;;;;;;;;;;;;;;;;;5068681;28;1663;-51
2021/08/03 00:08:03;;;;;;;;;;;;;;;;;;5061338;28;1668;-51
2021/08/03 00:10:28;;;;;;;;;;;;;;;;;;5060467;28;1593;-51
2021/08/03 00:12:54;;;;;;;;;;;;;;;;;;5069761;28;1005;-51
2021/08/03 00:15:20;;;;;;;;;;;;;;;;;;5068070;28;1203;-51
2021/08/03 00:17:45;;;;;;;;;;;;;;;;;;5069466;28;1341;-52
2021/08/03 00:20:10;;;;;;;;;;;;;;;;;;5059780;28;1906;-51
2021/08/03 00:22:35;;;;;;;;;;;;;;;;;;5070621;28;1167;-51
2021/08/03 00:25:00;;;;;;;;;;;;;;;;;;5059984;28;1200;-50
2021/08/03 00:27:26;;;;;;;;;;;;;;;;;;5066439;28;1603;-51
2021/08/03 00:29:51;;;;;;;;;;;;;;;;;;5062423;28;1394;-51
2021/08/03 00:32:16;;;;;;;;;;;;;;;;;;5069574;28;1183;-51
2021/08/03 00:34:41;;;;;;;;;;;;;;;;;;5063375;28;1353;-51
2021/08/03 00:37:08;;;;;;;;;;;;;;;;;;5067538;28;1539;-51
2021/08/03 00:39:35;;;;;;;;;;;;;;;;;;5069937;28;1352;-52
2021/08/03 00:42:01;;;;;;;;;;;;;;;;;;5067458;28;1906;-52
2021/08/03 00:44:56;;;;;;;;;;;;;;;;;;5068090;28;1544;-51
2021/08/03 00:47:21;;;;;;;;;;;;;;;;;;5058145;28;1729;-50
2021/08/03 00:49:46;;;;;;;;;;;;;;;;;;5069131;28;1406;-50
2021/08/03 00:52:12;;;;;;;;;;;;;;;;;;5069695;28;1183;-49
2021/08/03 00:54:37;;;;;;;;;;;;;;;;;;5066394;28;1544;-52
2021/08/03 00:57:03;;;;;;;;;;;;;;;;;;5067605;28;1628;-50
2021/08/03 00:59:28;;;;;;;;;;;;;;;;;;5055361;28;1318;-51
2021/08/03 01:01:54;;;;;;;;;;;;;;;;;;5065924;28;1910;-52
2021/08/03 01:04:19;;;;;;;;;;;;;;;;;;5068929;28;1323;-50
2021/08/03 01:06:46;;;;;;;;;;;;;;;;;;5065949;28;1592;-51
2021/08/03 01:09:13;;;;;;;;;;;;;;;;;;5078729;23;3881;-48
2021/08/03 01:11:38;;;;;;;;;;;;;;;;;;5080962;28;1679;-48
2021/08/03 01:14:13;;;;;;;;;;;;;;;;;;5079325;28;1524;-48
2021/08/03 01:16:44;;;;;;;;;;;;;;;;;;5078685;28;1160;-48
2021/08/03 01:19:18;;;;;;;;;;;;;;;;;;5093101;28;1638;-48
2021/08/03 01:21:56;;;;;;;;;;;;;;;;;;5059292;28;1906;-49
2021/08/03 01:24:28;;;;;;;;;;;;;;;;;;5058882;28;1082;-48
2021/08/03 01:26:53;;;;;;;;;;;;;;;;;;5057485;28;1627;-47
2021/08/03 01:29:19;;;;;;;;;;;;;;;;;;5057676;28;1520;-48
2021/08/03 01:31:56;;;;;;;;;;;;;;;;;;5058871;28;1208;-48
2021/08/03 01:34:21;;;;;;;;;;;;;;;;;;5057960;28;1231;-48
2021/08/03 01:36:48;;;;;;;;;;;;;;;;;;5059651;28;1615;-48
2021/08/03 01:39:14;;;;;;;;;;;;;;;;;;5059976;28;1309;-48
2021/08/03 01:41:39;;;;;;;;;;;;;;;;;;5059478;28;1910;-47
2021/08/03 01:44:04;;;;;;;;;;;;;;;;;;5059756;28;1369;-47
2021/08/03 01:46:30;;;;;;;;;;;;;;;;;;5059407;28;1116;-48
2021/08/03 01:48:56;;;;;;;;;;;;;;;;;;5058578;28;1403;-48
2021/08/03 01:51:22;;;;;;;;;;;;;;;;;;5058065;28;1646;-47
2021/08/03 01:53:47;;;;;;;;;;;;;;;;;;5057439;28;1117;-48
2021/08/03 01:56:12;;;;;;;;;;;;;;;;;;5060232;28;1650;-47
2021/08/03 01:58:39;;;;;;;;;;;;;;;;;;5060101;28;1280;-47
2021/08/03 02:01:05;;;;;;;;;;;;;;;;;;5057326;28;1898;-48
2021/08/03 02:03:30;;;;;;;;;;;;;;;;;;5058427;28;1492;-48
2021/08/03 02:05:55;;;;;;;;;;;;;;;;;;5059444;28;1517;-48
2021/08/03 02:08:21;;;;;;;;;;;;;;;;;;5055746;28;1290;-48
2021/08/03 02:10:46;;;;;;;;;;;;;;;;;;5057118;28;1612;-47
2021/08/03 02:13:11;;;;;;;;;;;;;;;;;;5059529;28;1182;-47
2021/08/03 02:15:37;;;;;;;;;;;;;;;;;;5056286;28;1472;-48
2021/08/03 02:18:02;;;;;;;;;;;;;;;;;;5060523;28;1210;-48
2021/08/03 02:20:27;;;;;;;;;;;;;;;;;;5055989;28;1906;-47
2021/08/03 02:22:52;;;;;;;;;;;;;;;;;;5059079;28;1112;-48
2021/08/03 02:25:17;;;;;;;;;;;;;;;;;;5059189;28;1231;-47
2021/08/03 02:27:43;;;;;;;;;;;;;;;;;;5059439;28;1624;-48
2021/08/03 02:30:08;;;;;;;;;;;;;;;;;;5058617;28;1333;-48
2021/08/03 02:32:36;;;;;;;;;;;;;;;;;;5058153;28;1374;-47
2021/08/03 02:35:03;;;;;;;;;;;;;;;;;;5057681;28;1568;-48
2021/08/03 02:37:31;;;;;;;;;;;;;;;;;;5058750;28;1131;-48
2021/08/03 02:39:56;;;;;;;;;;;;;;;;;;5058679;28;1898;-47
2021/08/03 02:42:22;;;;;;;;;;;;;;;;;;5053535;28;2168;-47
2021/08/03 02:44:47;;;;;;;;;;;;;;;;;;5057281;28;1116;-48
2021/08/03 02:50:07;;;;;;;;;;;;;;;;;;5047708;28;1613;-46
2021/08/03 02:52:33;;;;;;;;;;;;;;;;;;5082079;28;1308;-48
2021/08/03 02:55:03;;;;;;;;;;;;;;;;;;5062022;28;1176;-48
2021/08/03 02:57:29;;;;;;;;;;;;;;;;;;5061481;28;1564;-48
2021/08/03 02:59:56;;;;;;;;;;;;;;;;;;5062325;28;1977;-47
2021/08/03 03:02:21;;;;;;;;;;;;;;;;;;5062309;28;1369;-48
2021/08/03 03:04:52;;;;;;;;;;;;;;;;;;5061840;28;1570;-48
2021/08/03 03:07:18;;;;;;;;;;;;;;;;;;5061997;28;1210;-48
2021/08/03 03:09:43;;;;;;;;;;;;;;;;;;5060833;28;1307;-48
2021/08/03 03:12:08;;;;;;;;;;;;;;;;;;5060900;28;1579;-47
2021/08/03 03:14:34;;;;;;;;;;;;;;;;;;5062394;28;1230;-48
2021/08/03 03:16:59;;;;;;;;;;;;;;;;;;5062696;28;1425;-48
2021/08/03 03:19:24;;;;;;;;;;;;;;;;;;5060687;28;1318;-48
2021/08/03 03:21:49;;;;;;;;;;;;;;;;;;5059608;28;1910;-47
2021/08/03 03:24:15;;;;;;;;;;;;;;;;;;5062806;28;1291;-48
2021/08/03 03:26:40;;;;;;;;;;;;;;;;;;5057665;28;1635;-47
2021/08/03 03:29:05;;;;;;;;;;;;;;;;;;5060513;28;1531;-48
2021/08/03 03:31:31;;;;;;;;;;;;;;;;;;5059730;28;1650;-48
2021/08/03 03:33:56;;;;;;;;;;;;;;;;;;5060807;28;1502;-48
2021/08/03 03:36:22;;;;;;;;;;;;;;;;;;5062025;28;1552;-47
2021/08/03 03:38:47;;;;;;;;;;;;;;;;;;5085366;28;1358;-48
2021/08/03 03:41:13;;;;;;;;;;;;;;;;;;5063632;28;2007;-48
2021/08/03 03:43:38;;;;;;;;;;;;;;;;;;5060941;28;1108;-48
2021/08/03 03:46:13;;;;;;;;;;;;;;;;;;5060168;28;1470;-48
2021/08/03 03:48:39;;;;;;;;;;;;;;;;;;5061004;28;1556;-48
2021/08/03 03:51:05;;;;;;;;;;;;;;;;;;5060364;28;1395;-48
2021/08/03 03:53:34;;;;;;;;;;;;;;;;;;5061520;28;1132;-47
2021/08/03 03:56:00;;;;;;;;;;;;;;;;;;5056261;28;1575;-47
2021/08/03 03:58:25;;;;;;;;;;;;;;;;;;5061983;28;1489;-48
2021/08/03 04:00:50;;;;;;;;;;;;;;;;;;5060289;28;1963;-48
2021/08/03 04:03:16;;;;;;;;;;;;;;;;;;5059743;28;1694;-48
2021/08/03 04:05:41;;;;;;;;;;;;;;;;;;5064301;28;1782;-48
2021/08/03 04:08:06;;;;;;;;;;;;;;;;;;5060004;28;1171;-48
2021/08/03 04:10:32;;;;;;;;;;;;;;;;;;5059185;28;1512;-48
2021/08/03 04:12:59;;;;;;;;;;;;;;;;;;5061522;28;1041;-48
2021/08/03 04:15:24;;;;;;;;;;;;;;;;;;5061010;28;1366;-48
2021/08/03 04:17:49;;;;;;;;;;;;;;;;;;5060432;28;1223;-47
2021/08/03 04:20:14;;;;;;;;;;;;;;;;;;5058290;28;1973;-48
2021/08/03 04:22:39;;;;;;;;;;;;;;;;;;5060188;28;1219;-47
2021/08/03 04:25:05;;;;;;;;;;;;;;;;;;5059401;28;1771;-48
2021/08/03 04:27:30;;;;;;;;;;;;;;;;;;5061327;28;1674;-48
2021/08/03 04:29:56;;;;;;;;;;;;;;;;;;5060114;28;1295;-47
2021/08/03 04:32:21;;;;;;;;;;;;;;;;;;5060429;28;1655;-48
2021/08/03 04:34:46;;;;;;;;;;;;;;;;;;5059753;28;1607;-48
2021/08/03 04:37:11;;;;;;;;;;;;;;;;;;5059130;28;1481;-48
2021/08/03 04:39:36;;;;;;;;;;;;;;;;;;5060229;28;1326;-47
2021/08/03 04:42:01;;;;;;;;;;;;;;;;;;5060678;28;1926;-48
2021/08/03 04:44:27;;;;;;;;;;;;;;;;;;5060212;28;1298;-47
2021/08/03 04:46:52;;;;;;;;;;;;;;;;;;5060266;28;1218;-48
2021/08/03 04:49:17;;;;;;;;;;;;;;;;;;5061561;28;1551;-47
2021/08/03 04:51:42;;;;;;;;;;;;;;;;;;5059899;28;1160;-47
2021/08/03 04:54:07;;;;;;;;;;;;;;;;;;5059290;28;1395;-48
2021/08/03 04:56:33;;;;;;;;;;;;;;;;;;5060015;28;1583;-47
2021/08/03 04:58:58;;;;;;;;;;;;;;;;;;5059871;28;1300;-48
2021/08/03 05:01:23;;;;;;;;;;;;;;;;;;5058713;28;1910;-48
2021/08/03 05:03:48;;;;;;;;;;;;;;;;;;5059606;28;1013;-47
2021/08/03 05:06:13;;;;;;;;;;;;;;;;;;5059610;28;1607;-48
2021/08/03 05:08:38;;;;;;;;;;;;;;;;;;5059258;28;1319;-48
2021/08/03 05:11:04;;;;;;;;;;;;;;;;;;5059149;28;1520;-48
2021/08/03 05:13:29;;;;;;;;;;;;;;;;;;5060322;28;1084;-47
2021/08/03 05:15:54;;;;;;;;;;;;;;;;;;5059975;28;1494;-48
2021/08/03 05:18:19;;;;;;;;;;;;;;;;;;5061875;28;1231;-47
2021/08/03 05:20:44;;;;;;;;;;;;;;;;;;5060017;28;1961;-48
2021/08/03 05:23:09;;;;;;;;;;;;;;;;;;5060086;28;1223;-47
2021/08/03 05:25:35;;;;;;;;;;;;;;;;;;5057724;28;1551;-47
2021/08/03 05:28:00;;;;;;;;;;;;;;;;;;5060768;28;1488;-48
2021/08/03 05:30:25;;;;;;;;;;;;;;;;;;5060823;28;1211;-48
2021/08/03 05:32:50;;;;;;;;;;;;;;;;;;5059643;28;1417;-48
2021/08/03 05:35:15;;;;;;;;;;;;;;;;;;5059868;28;1539;-48
2021/08/03 05:37:40;;;;;;;;;;;;;;;;;;5058972;28;1223;-48
2021/08/03 05:40:09;;;;;;;;;;;;;;;;;;5060182;28;1909;-47
2021/08/03 05:42:34;;;;;;;;;;;;;;;;;;5058850;28;1590;-48
2021/08/03 05:44:59;;;;;;;;;;;;;;;;;;5059428;28;1137;-47
2021/08/03 05:47:24;;;;;;;;;;;;;;;;;;5059744;28;1365;-47
2021/08/03 05:49:50;;;;;;;;;;;;;;;;;;5059685;28;1604;-47
2021/08/03 05:52:15;;;;;;;;;;;;;;;;;;5058486;28;1294;-48
2021/08/03 05:54:40;;;;;;;;;;;;;;;;;;5059935;28;1231;-48
2021/08/03 05:57:05;;;;;;;;;;;;;;;;;;5061500;28;1517;-47
2021/08/03 05:59:30;;;;;;;;;;;;;;;;;;5058820;28;1422;-48
2021/08/03 06:01:56;;;;;;;;;;;;;;;;;;5058227;28;1961;-47
2021/08/03 06:04:21;;;;;;;;;;;;;;;;;;5059824;28;1365;-49
2021/08/03 06:06:46;;;;;;;;;;;;;;;;;;5059497;28;1980;-47
2021/08/03 06:09:12;;;;;;;;;;;;;;;;;;5059344;28;1354;-48
2021/08/03 06:11:40;;;;;;;;;;;;;;;;;;5056823;28;1615;-47
2021/08/03 06:14:06;;;;;;;;;;;;;;;;;;5058809;28;1403;-47
2021/08/03 06:16:31;;;;;;;;;;;;;;;;;;5059999;28;1266;-48
2021/08/03 06:18:56;;;;;;;;;;;;;;;;;;5055592;28;1580;-47
2021/08/03 06:21:21;;;;;;;;;;;;;;;;;;5061709;28;1926;-47
2021/08/03 06:23:47;;;;;;;;;;;;;;;;;;5058625;28;1604;-47
2021/08/03 06:26:13;;;;;;;;;;;;;;;;;;5061479;28;1619;-48
2021/08/03 06:28:38;;;;;;;;;;;;;;;;;;5064347;28;1449;-46
2021/08/03 06:31:04;;;;;;;;;;;;;;;;;;5061872;28;1293;-47
2021/08/03 06:33:29;;;;;;;;;;;;;;;;;;5062066;28;1346;-48
2021/08/03 06:35:54;;;;;;;;;;;;;;;;;;5061886;28;1655;-48
2021/08/03 06:38:19;;;;;;;;;;;;;;;;;;5062817;28;1302;-48
2021/08/03 06:40:46;;;;;;;;;;;;;;;;;;5061515;28;1898;-46
2021/08/03 06:43:13;;;;;;;;;;;;;;;;;;5061457;28;1175;-47
2021/08/03 06:45:38;;;;;;;;;;;;;;;;;;5061699;28;1395;-47
2021/08/03 06:48:04;;;;;;;;;;;;;;;;;;5061580;28;1117;-45
2021/08/03 06:50:31;;;;;;;;;;;;;;;;;;5061315;28;1717;-47
2021/08/03 06:52:56;;;;;;;;;;;;;;;;;;5062309;28;1048;-47
2021/08/03 06:55:23;;;;;;;;;;;;;;;;;;5061811;28;1163;-47
2021/08/03 06:57:50;;;;;;;;;;;;;;;;;;5061853;28;1794;-47
2021/08/03 07:00:15;;;;;;;;;;;;;;;;;;5061524;28;1981;-47
2021/08/03 07:02:44;;;;;;;;;;;;;;;;;;5061129;28;1251;-47
2021/08/03 07:05:18;;;;;;;;;;;;;;;;;;5061034;28;1681;-48
2021/08/03 07:07:44;;;;;;;;;;;;;;;;;;5061160;28;1219;-47
2021/08/03 07:10:09;;;;;;;;;;;;;;;;;;5097837;22;1673;-47
2021/08/03 07:12:34;;;;;;;;;;;;;;;;;;5080712;28;1613;-49
2021/08/03 07:15:00;;;;;;;;;;;;;;;;;;5080388;28;1557;-48
2021/08/03 07:17:25;;;;;;;;;;;;;;;;;;5083286;28;1180;-48
2021/08/03 07:19:50;;;;;;;;;;;;;;;;;;5077969;28;1291;-48
2021/08/03 07:22:15;;;;;;;;;;;;;;;;;;5076449;28;1906;-45
2021/08/03 07:24:41;;;;;;;;;;;;;;;;;;5076007;28;1738;-45
2021/08/03 07:27:06;;;;;;;;;;;;;;;;;;5080075;28;1605;-48
2021/08/03 07:29:31;;;;;;;;;;;;;;;;;;5074853;28;1624;-49
2021/08/03 07:31:56;;;;;;;;;;;;;;;;;;5074768;28;1365;-48
2021/08/03 07:34:22;;;;;;;;;;;;;;;;;;5078742;28;1175;-45
2021/08/03 07:36:47;;;;;;;;;;;;;;;;;;5074434;28;1792;-49
2021/08/03 07:39:12;;;;;;;;;;;;;;;;;;5081982;28;1341;-49
2021/08/03 07:41:37;;;;;;;;;;;;;;;;;;5074906;28;1906;-49
2021/08/03 07:44:03;;;;;;;;;;;;;;;;;;5078248;28;1696;-48
2021/08/03 07:46:31;;;;;;;;;;;;;;;;;;5079377;28;1068;-49
2021/08/03 07:48:56;;;;;;;;;;;;;;;;;;5078092;28;1563;-49
2021/08/03 07:51:22;;;;;;;;;;;;;;;;;;5078229;28;1395;-49
2021/08/03 07:53:47;;;;;;;;;;;;;;;;;;5076380;28;1034;-49
2021/08/03 07:56:15;;;;;;;;;;;;;;;;;;5076303;28;1529;-49
2021/08/03 07:58:40;;;;;;;;;;;;;;;;;;5079544;28;1275;-49
2021/08/03 08:01:05;;;;;;;;;;;;;;;;;;5077775;28;1897;-48
2021/08/03 08:03:31;;;;;;;;;;;;;;;;;;5075787;28;1581;-46
2021/08/03 08:05:56;;;;;;;;;;;;;;;;;;5078513;28;1102;-47
2021/08/03 08:08:21;;;;;;;;;;;;;;;;;;5080774;28;1163;-46
2021/08/03 08:10:47;;;;;;;;;;;;;;;;;;5079384;28;1561;-49
2021/08/03 08:13:12;;;;;;;;;;;;;;;;;;5080651;28;1092;-48
2021/08/03 08:15:37;;;;;;;;;;;;;;;;;;5076568;28;1521;-48
2021/08/03 08:18:05;;;;;;;;;;;;;;;;;;5079140;28;1801;-48
2021/08/03 08:20:30;;;;;;;;;;;;;;;;;;5077145;28;1914;-49
2021/08/03 08:22:55;;;;;;;;;;;;;;;;;;5078683;28;1227;-49
2021/08/03 08:25:21;;;;;;;;;;;;;;;;;;5076014;28;1588;-49
2021/08/03 08:27:46;;;;;;;;;;;;;;;;;;5078156;28;1585;-49
2021/08/03 08:30:11;;;;;;;;;;;;;;;;;;5078113;28;1423;-49
2021/08/03 08:32:36;;;;;;;;;;;;;;;;;;5080245;28;1128;-49
2021/08/03 08:35:03;;;;;;;;;;;;;;;;;;5076324;28;1561;-49
2021/08/03 08:37:28;;;;;;;;;;;;;;;;;;5079446;28;1235;-48
2021/08/03 08:39:53;;;;;;;;;;;;;;;;;;5080096;28;1232;-48
2021/08/03 08:42:18;;;;;;;;;;;;;;;;;;5077183;28;1910;-49
2021/08/03 08:44:47;;;;;;;;;;;;;;;;;;5077178;28;1065;-48
2021/08/03 08:47:12;;;;;;;;;;;;;;;;;;5077359;28;1335;-49
2021/08/03 08:49:37;;;;;;;;;;;;;;;;;;5079150;28;1389;-49
2021/08/03 08:52:03;;;;;;;;;;;;;;;;;;5078302;28;1603;-48
2021/08/03 08:54:28;;;;;;;;;;;;;;;;;;5077867;28;1549;-49
2021/08/03 08:56:53;;;;;;;;;;;;;;;;;;5076184;28;1790;-48
2021/08/03 08:59:18;;;;;;;;;;;;;;;;;;5078778;28;1458;-49
2021/08/03 09:01:43;;;;;;;;;;;;;;;;;;5080559;28;1961;-49
2021/08/03 09:04:09;;;;;;;;;;;;;;;;;;5079796;28;1143;-49
2021/08/03 09:06:34;;;;;;;;;;;;;;;;;;5074297;28;1748;-49
2021/08/03 09:08:59;;;;;;;;;;;;;;;;;;5080053;28;1283;-49
2021/08/03 09:11:25;;;;;;;;;;;;;;;;;;5077620;28;1699;-49
2021/08/03 09:13:56;;;;;;;;;;;;;;;;;;5080988;28;1170;-49
2021/08/03 09:16:22;;;;;;;;;;;;;;;;;;5075038;28;1358;-48
2021/08/03 09:18:47;;;;;;;;;;;;;;;;;;5077149;28;1585;-48
2021/08/03 09:21:20;;;;;;;;;;;;;;;;;;5071859;28;1972;-49
2021/08/03 09:23:46;;;;;;;;;;;;;;;;;;5080633;28;1167;-49
2021/08/03 09:26:11;;;;;;;;;;;;;;;;;;5077706;28;1576;-50
2021/08/03 09:28:55;;;;;;;;;;;;;;;;;;5076979;28;1399;-49
2021/08/03 09:31:21;;;;;;;;;;;;;;;;;;5078034;28;1631;-49
2021/08/03 09:33:46;;;;;;;;;;;;;;;;;;5076024;28;1391;-49
2021/08/03 09:36:11;;;;;;;;;;;;;;;;;;5079415;28;1143;-49
2021/08/03 09:38:36;;;;;;;;;;;;;;;;;;5077722;28;1600;-49
2021/08/03 09:41:08;;;;;;;;;;;;;;;;;;5078749;28;1977;-49
2021/08/03 09:43:33;;;;;;;;;;;;;;;;;;5079662;28;1344;-49
2021/08/03 09:45:59;;;;;;;;;;;;;;;;;;5080552;28;1178;-49
2021/08/03 09:48:24;;;;;;;;;;;;;;;;;;5078508;28;1619;-49
2021/08/03 09:50:59;;;;;;;;;;;;;;;;;;5076067;28;1564;-49
2021/08/03 09:53:43;;;;;;;;;;;;;;;;;;5077946;28;1354;-48
2021/08/03 09:56:09;;;;;;;;;;;;;;;;;;5076761;28;1617;-49
2021/08/03 09:58:50;;;;;;;;;;;;;;;;;;5081309;28;1466;-49
2021/08/03 10:01:25;;;;;;;;;;;;;;;;;;5084011;28;1979;-49
2021/08/03 10:03:50;;;;;;;;;;;;;;;;;;5081435;28;1089;-49
2021/08/03 10:06:15;;;;;;;;;;;;;;;;;;5076138;28;1863;-49
2021/08/03 10:08:40;;;;;;;;;;;;;;;;;;5080863;28;1288;-49
2021/08/03 10:11:06;;;;;;;;;;;;;;;;;;5081287;28;1591;-49
2021/08/03 10:13:31;;;;;;;;;;;;;;;;;;5080004;28;1392;-49
2021/08/03 10:15:56;;;;;;;;;;;;;;;;;;5085524;28;1064;-49
2021/08/03 10:18:21;;;;;;;;;;;;;;;;;;5081598;28;1164;-49
2021/08/03 10:20:46;;;;;;;;;;;;;;;;;;5081215;28;1918;-49
2021/08/03 10:23:11;;;;;;;;;;;;;;;;;;5081419;28;1316;-49
2021/08/03 10:25:38;;;;;;;;;;;;;;;;;;5081104;28;1656;-48
2021/08/03 10:28:36;;;;;;;;;;;;;;;;;;5076277;28;1447;-49
2021/08/03 10:31:01;;;;;;;;;;;;;;;;;;5055428;28;1550;-48
2021/08/03 10:33:46;;;;;;;;;;;;;;;;;;5079828;28;1355;-49
2021/08/03 10:36:30;;;;;;;;;;;;;;;;;;5081886;28;1001;-49
2021/08/03 10:39:08;;;;;;;;;;;;;;;;;;5077514;28;1409;-49
2021/08/03 10:41:53;;;;;;;;;;;;;;;;;;5076656;28;1905;-49
2021/08/03 10:44:45;;;;;;;;;;;;;;;;;;5082119;28;1681;-49
2021/08/03 10:47:29;;;;;;;;;;;;;;;;;;5075320;28;1553;-49
2021/08/03 10:50:06;;;;;;;;;;;;;;;;;;5073491;28;1569;-49
2021/08/03 10:52:46;;;;;;;;;;;;;;;;;;5079164;28;1163;-48
2021/08/03 10:55:30;;;;;;;;;;;;;;;;;;5080568;28;1414;-49
2021/08/03 10:58:24;;;;;;;;;;;;;;;;;;5079046;28;937;-49
2021/08/03 11:00:52;;;;;;;;;;;;;;;;;;5069310;28;1976;-48
2021/08/03 11:03:32;;;;;;;;;;;;;;;;;;5080893;28;1297;-48
2021/08/03 11:05:58;;;;;;;;;;;;;;;;;;5079990;28;1545;-48
2021/08/03 11:08:29;;;;;;;;;;;;;;;;;;5078927;28;1356;-49
2021/08/03 11:11:04;;;;;;;;;;;;;;;;;;5079696;28;1615;-49
2021/08/03 11:13:35;;;;;;;;;;;;;;;;;;5078511;28;1363;-49
2021/08/03 11:16:01;;;;;;;;;;;;;;;;;;5083411;28;1271;-49
2021/08/03 11:18:37;;;;;;;;;;;;;;;;;;5081356;28;1113;-49
2021/08/03 11:21:03;;;;;;;;;;;;;;;;;;5077026;28;1918;-49
2021/08/03 11:23:48;;;;;;;;;;;;;;;;;;5081880;28;1184;-49
2021/08/03 11:26:13;;;;;;;;;;;;;;;;;;5080145;28;1608;-49
2021/08/03 11:28:38;;;;;;;;;;;;;;;;;;5078168;28;1326;-49
2021/08/03 11:31:03;;;;;;;;;;;;;;;;;;5079428;28;1153;-48
2021/08/03 11:33:29;;;;;;;;;;;;;;;;;;5079337;28;1545;-49
2021/08/03 11:35:54;;;;;;;;;;;;;;;;;;5079324;28;1478;-49
2021/08/03 11:38:20;;;;;;;;;;;;;;;;;;5083091;28;1172;-49
2021/08/03 11:40:45;;;;;;;;;;;;;;;;;;5074867;28;1973;-48
2021/08/03 11:43:10;;;;;;;;;;;;;;;;;;5078623;28;1276;-49
2021/08/03 11:45:36;;;;;;;;;;;;;;;;;;5079846;28;1410;-49
2021/08/03 11:48:02;;;;;;;;;;;;;;;;;;5078219;28;1171;-49
2021/08/03 11:50:28;;;;;;;;;;;;;;;;;;5076232;28;1584;-49
2021/08/03 11:52:53;;;;;;;;;;;;;;;;;;5080252;28;1167;-49
2021/08/03 11:55:18;;;;;;;;;;;;;;;;;;5079777;28;1505;-49
2021/08/03 11:57:43;;;;;;;;;;;;;;;;;;5080213;28;1584;-48
2021/08/03 12:00:12;;;;;;;;;;;;;;;;;;5076078;28;1406;-48
2021/08/03 12:02:38;;;;;;;;;;;;;;;;;;5080283;28;1902;-48
2021/08/03 12:05:15;;;;;;;;;;;;;;;;;;5076605;28;1563;-49
2021/08/03 12:07:44;;;;;;;;;;;;;;;;;;5080389;28;1199;-49
2021/08/03 12:10:10;;;;;;;;;;;;;;;;;;5079080;28;1354;-48
2021/08/03 12:12:35;;;;;;;;;;;;;;;;;;5078167;28;1562;-48
2021/08/03 12:15:01;;;;;;;;;;;;;;;;;;5077978;28;1350;-49
2021/08/03 12:17:26;;;;;;;;;;;;;;;;;;5079184;28;1069;-48
2021/08/03 12:19:51;;;;;;;;;;;;;;;;;;5073769;28;1525;-48
2021/08/03 12:22:26;;;;;;;;;;;;;;;;;;5075657;28;1913;-48
2021/08/03 12:24:57;;;;;;;;;;;;;;;;;;5080128;28;1160;-48
2021/08/03 12:27:23;;;;;;;;;;;;;;;;;;5080395;28;1554;-49
2021/08/03 12:29:48;;;;;;;;;;;;;;;;;;5079166;28;1304;-48
2021/08/03 12:32:13;;;;;;;;;;;;;;;;;;5080439;28;1127;-48
2021/08/03 12:34:38;;;;;;;;;;;;;;;;;;5075651;28;1508;-48
2021/08/03 12:37:04;;;;;;;;;;;;;;;;;;5080225;28;1597;-48
2021/08/03 12:39:44;;;;;;;;;;;;;;;;;;5079660;28;1288;-49
2021/08/03 12:42:23;;;;;;;;;;;;;;;;;;5077714;28;1910;-48
2021/08/03 12:44:49;;;;;;;;;;;;;;;;;;5076767;28;1485;-49
2021/08/03 12:47:15;;;;;;;;;;;;;;;;;;5079863;28;1179;-48
2021/08/03 12:49:44;;;;;;;;;;;;;;;;;;5076871;28;1576;-48
2021/08/03 12:52:10;;;;;;;;;;;;;;;;;;5078474;28;1171;-48
2021/08/03 12:54:35;;;;;;;;;;;;;;;;;;5078221;28;1275;-48
2021/08/03 12:57:00;;;;;;;;;;;;;;;;;;5078482;28;1549;-48
2021/08/03 12:59:42;;;;;;;;;;;;;;;;;;5077861;28;1272;-49
2021/08/03 13:02:08;;;;;;;;;;;;;;;;;;5079919;28;1927;-48
2021/08/03 13:04:33;;;;;;;;;;;;;;;;;;5076674;28;1674;-48
2021/08/03 13:07:00;;;;;;;;;;;;;;;;;;5079536;28;1033;-48
2021/08/03 13:11:53;;;;;;;;;;;;;;;;;;5096413;28;1595;-48
2021/08/03 13:14:18;;;;;;;;;;;;;;;;;;5098484;28;1356;-46
2021/08/03 13:16:43;;;;;;;;;;;;;;;;;;5104758;28;1001;-48
2021/08/03 13:19:08;;;;;;;;;;;;;;;;;;5100928;28;1591;-46
2021/08/03 13:21:34;;;;;;;;;;;;;;;;;;5080452;28;1925;-46
2021/08/03 13:23:59;;;;;;;;;;;;;;;;;;5066329;28;1140;-48
2021/08/03 13:26:24;;;;;;;;;;;;;;;;;;5079628;28;1545;-48
2021/08/03 13:28:50;;;;;;;;;;;;;;;;;;5081607;28;1227;-48
2021/08/03 13:31:15;;;;;;;;;;;;;;;;;;5081671;28;1386;-47
2021/08/03 13:33:40;;;;;;;;;;;;;;;;;;5078480;28;1393;-48
2021/08/03 13:36:05;;;;;;;;;;;;;;;;;;5082501;28;1668;-48
2021/08/03 13:38:31;;;;;;;;;;;;;;;;;;5080284;28;1179;-47
2021/08/03 13:40:56;;;;;;;;;;;;;;;;;;5086343;28;1917;-48
2021/08/03 13:43:22;;;;;;;;;;;;;;;;;;5080981;28;1128;-47
2021/08/03 13:45:47;;;;;;;;;;;;;;;;;;5078439;28;1260;-48
2021/08/03 13:48:12;;;;;;;;;;;;;;;;;;5077388;28;1603;-48
2021/08/03 13:50:38;;;;;;;;;;;;;;;;;;5080422;28;1552;-48
2021/08/03 13:53:03;;;;;;;;;;;;;;;;;;5081352;28;1222;-48
2021/08/03 13:55:28;;;;;;;;;;;;;;;;;;5080070;28;1516;-48
2021/08/03 13:57:53;;;;;;;;;;;;;;;;;;5082307;28;1732;-48
2021/08/03 14:00:18;;;;;;;;;;;;;;;;;;5081022;28;1373;-48
2021/08/03 14:02:43;;;;;;;;;;;;;;;;;;5078748;28;1918;-48
2021/08/03 14:05:09;;;;;;;;;;;;;;;;;;5079730;28;1612;-47
2021/08/03 14:07:34;;;;;;;;;;;;;;;;;;5082631;28;1373;-48
2021/08/03 14:09:59;;;;;;;;;;;;;;;;;;5080166;28;1699;-48
2021/08/03 14:12:25;;;;;;;;;;;;;;;;;;5079761;28;1636;-48
2021/08/03 14:14:50;;;;;;;;;;;;;;;;;;5081642;28;1030;-47
2021/08/03 14:17:15;;;;;;;;;;;;;;;;;;5078980;28;1225;-48
2021/08/03 14:19:40;;;;;;;;;;;;;;;;;;5080840;28;1341;-47
2021/08/03 14:22:06;;;;;;;;;;;;;;;;;;5079808;28;1973;-48
2021/08/03 14:24:31;;;;;;;;;;;;;;;;;;5081901;28;1349;-48
2021/08/03 14:26:56;;;;;;;;;;;;;;;;;;5081124;28;1569;-47
2021/08/03 14:29:21;;;;;;;;;;;;;;;;;;5080709;28;1512;-48
2021/08/03 14:31:46;;;;;;;;;;;;;;;;;;5080689;28;1144;-48
2021/08/03 14:34:12;;;;;;;;;;;;;;;;;;5079623;28;1362;-48
2021/08/03 14:36:37;;;;;;;;;;;;;;;;;;5082542;28;1561;-48
2021/08/03 14:39:02;;;;;;;;;;;;;;;;;;5079183;28;1358;-48
2021/08/03 14:41:27;;;;;;;;;;;;;;;;;;5080560;28;1959;-48
2021/08/03 14:43:54;;;;;;;;;;;;;;;;;;5084589;28;1270;-48
2021/08/03 14:46:19;;;;;;;;;;;;;;;;;;5082366;28;1290;-47
2021/08/03 14:48:44;;;;;;;;;;;;;;;;;;5083673;28;1541;-48
2021/08/03 14:51:10;;;;;;;;;;;;;;;;;;5084033;28;1260;-47
2021/08/03 14:53:36;;;;;;;;;;;;;;;;;;5081662;28;1224;-48
2021/08/03 14:56:01;;;;;;;;;;;;;;;;;;5084392;28;1517;-48
2021/08/03 14:58:27;;;;;;;;;;;;;;;;;;5083448;28;1495;-48
2021/08/03 15:00:52;;;;;;;;;;;;;;;;;;5083450;28;1902;-48
2021/08/03 15:03:17;;;;;;;;;;;;;;;;;;5081986;28;1242;-48
2021/08/03 15:05:42;;;;;;;;;;;;;;;;;;5083756;28;1597;-48
2021/08/03 15:08:07;;;;;;;;;;;;;;;;;;5083636;28;1314;-48
2021/08/03 15:10:32;;;;;;;;;;;;;;;;;;5082333;28;1597;-47
2021/08/03 15:12:58;;;;;;;;;;;;;;;;;;5082967;28;957;-49
2021/08/03 15:15:23;;;;;;;;;;;;;;;;;;5083922;28;1283;-47
2021/08/03 15:17:48;;;;;;;;;;;;;;;;;;5084342;28;1022;-48
2021/08/03 15:20:13;;;;;;;;;;;;;;;;;;5084271;28;1559;-48
2021/08/03 15:22:39;;;;;;;;;;;;;;;;;;5083637;28;1922;-47
2021/08/03 15:25:04;;;;;;;;;;;;;;;;;;5081367;28;1133;-48
2021/08/03 15:27:29;;;;;;;;;;;;;;;;;;5085411;28;1620;-48
2021/08/03 15:29:54;;;;;;;;;;;;;;;;;;5084254;28;1247;-48
2021/08/03 15:32:19;;;;;;;;;;;;;;;;;;5081698;28;1311;-47
2021/08/03 15:34:45;;;;;;;;;;;;;;;;;;5084394;28;1645;-48
2021/08/03 15:37:11;;;;;;;;;;;;;;;;;;5082103;28;1286;-48
2021/08/03 15:39:36;;;;;;;;;;;;;;;;;;5081503;28;1355;-48
2021/08/03 15:42:01;;;;;;;;;;;;;;;;;;5083038;28;1902;-49
2021/08/03 15:44:26;;;;;;;;;;;;;;;;;;5083428;28;1140;-48
2021/08/03 15:46:51;;;;;;;;;;;;;;;;;;5082761;28;1314;-47
2021/08/03 15:49:17;;;;;;;;;;;;;;;;;;5085527;28;1285;-47
2021/08/03 15:51:42;;;;;;;;;;;;;;;;;;5081256;28;1640;-47
2021/08/03 15:54:08;;;;;;;;;;;;;;;;;;5082604;28;1409;-48
2021/08/03 15:56:33;;;;;;;;;;;;;;;;;;5084665;28;1980;-48
2021/08/03 15:58:58;;;;;;;;;;;;;;;;;;5081324;28;1291;-48
2021/08/03 16:01:23;;;;;;;;;;;;;;;;;;5082745;28;1979;-47
2021/08/03 16:03:49;;;;;;;;;;;;;;;;;;5083305;28;1163;-48
2021/08/03 16:06:14;;;;;;;;;;;;;;;;;;5084322;28;1584;-49
2021/08/03 16:08:39;;;;;;;;;;;;;;;;;;5081407;28;1369;-48
2021/08/03 16:11:04;;;;;;;;;;;;;;;;;;5081823;28;1533;-48
2021/08/03 16:13:30;;;;;;;;;;;;;;;;;;5081998;28;1263;-48
2021/08/03 16:15:55;;;;;;;;;;;;;;;;;;5081246;28;1152;-48
2021/08/03 16:18:21;;;;;;;;;;;;;;;;;;5083029;28;1492;-48
2021/08/03 16:20:46;;;;;;;;;;;;;;;;;;5088758;28;2000;-48
2021/08/03 16:23:11;;;;;;;;;;;;;;;;;;5080235;28;1121;-48
2021/08/03 16:25:37;;;;;;;;;;;;;;;;;;5081073;28;1545;-49
2021/08/03 16:28:02;;;;;;;;;;;;;;;;;;5082312;28;1477;-47
2021/08/03 16:30:28;;;;;;;;;;;;;;;;;;5081613;28;1355;-48
2021/08/03 16:32:55;;;;;;;;;;;;;;;;;;5084060;28;1263;-48
2021/08/03 16:35:25;;;;;;;;;;;;;;;;;;5082820;28;1735;-48
2021/08/03 16:37:50;;;;;;;;;;;;;;;;;;5080758;28;1136;-48
2021/08/03 16:40:16;;;;;;;;;;;;;;;;;;5088413;28;1359;-48
2021/08/03 16:42:41;;;;;;;;;;;;;;;;;;5065899;28;1975;-48
2021/08/03 16:45:06;;;;;;;;;;;;;;;;;;5080429;28;1535;-47
2021/08/03 16:47:31;;;;;;;;;;;;;;;;;;5084908;28;1148;-47
2021/08/03 16:49:57;;;;;;;;;;;;;;;;;;5081224;28;1688;-48
2021/08/03 16:52:22;;;;;;;;;;;;;;;;;;5082607;28;1539;-47
2021/08/03 16:54:47;;;;;;;;;;;;;;;;;;5081756;28;1116;-48
2021/08/03 16:57:12;;;;;;;;;;;;;;;;;;5080395;28;1588;-47
2021/08/03 16:59:37;;;;;;;;;;;;;;;;;;5082422;28;1283;-48
2021/08/03 17:02:11;;;;;;;;;;;;;;;;;;5082880;28;1977;-48
2021/08/03 17:04:48;;;;;;;;;;;;;;;;;;5085719;28;1656;-48